Tiempo atmosférico en la estación meteorológica de Marbella, Málaga (2 m.)



Fecha
DESCASC
Temp. máxima en grados centígrados (hora)
DESCASC
Temp. mínima en grados centígrados (hora)
DESCASC
Temp. media en grados centígrados
DESCASC
Racha de viento máxima en m/sg (hora)
DESCASC
Velocidad máxima media en intervalos de 10 minutos(hora)
DESCASC
Precipitaciones diarias en mm
DESCASC
Precipitaciones de 00:00 a 06:00 en mm
DESCASC
Precipitaciones de 06:00 a 12:00 en mm
DESCASC
Precipitaciones de 12:00 a 18:00 en mm
DESCASC
Precipitaciones de 18:00 a 24:00 en mm
DESCASC
13-02-2020 17.9 (15:30) 13.1 (06:20) 15.5 8.61 (22:50) 5.28 (23:30) 0 0 0 0 0
12-02-2020 19.9 (09:40) 13.2 (07:50) 16.5 8.61 (13:30) 6.67 (13:40) 0 0 0 0 0
11-02-2020 20 (17:30) 11.3 (06:10) 15.7 4.72 (15:40) 3.89 (15:40) 0 0 0 0 0
10-02-2020 19.3 (11:50) 11.7 (00:00) 15.5 4.17 (14:10) 3.61 (18:50) 0 0 0 0 0
09-02-2020 19.4 (10:40) 12.5 (00:00) 15.9 9.17 (11:20) 8.33 (11:30) 0 0 0 0 0
08-02-2020 17.4 (15:50) 12.4 (00:00) 14.9 9.17 (16:30) 7.22 (16:40) 0 0 0 0 0
07-02-2020 17 (14:20) 13.4 (00:00) 15.2 7.5 (19:40) 6.67 (19:30) 0 0 0 0 0
06-02-2020 15.7 (16:40) 13.8 (00:00) 14.8 10.56 (06:50) 9.17 (05:40) 0 0 0 0 0
05-02-2020 16.9 (17:00) 11.4 (00:00) 14.1 10.56 (10:20) 7.5 (23:50) 0 0 0 0 0
04-02-2020 15.7 (01:10) 11.5 (00:00) 13.6 6.39 (23:20) 5 (23:40) 0 0 0 0 0
03-02-2020 20.3 (10:30) 12.5 (06:10) 16.4 5.56 (11:20) 5.28 (11:20) 0 0 0 0 0
02-02-2020 18.9 (10:50) 13 (00:00) 15.9 8.33 (12:30) 7.22 (12:40) 0 0 0 0 0
01-02-2020 20.6 (17:50) 14.2 (00:00) 17.4 10.28 (09:50) 6.11 (14:20) 0 0 0 0 0
31-01-2020 19.1 (18:00) 12.8 (00:00) 16 7.5 (23:50) 5.56 (15:10) 0 0 0 0 0
30-01-2020 20.8 (17:30) 11.5 (00:00) 16.1 7.5 (18:40) 5.83 (18:10) 0 0 0 0 0
29-01-2020 17.4 (18:10) 11.2 (00:00) 14.3 6.39 (16:40) 5.28 (16:40) 0 0 0 0 0
28-01-2020 17.7 (17:50) 11.9 (00:00) 14.8 10 (01:30) 5.83 (21:10) 0 0 0 0 0
27-01-2020 16.4 (10:20) 10.1 (00:00) 13.3 6.67 (00:10) 4.17 (17:00) 0 0 0 0 0
26-01-2020 18.9 (17:40) 9.8 (00:00) 14.3 7.78 (23:10) 4.44 (23:10) 0.2 0 0.2 0 0
25-01-2020 15.1 (05:00) 10.6 (00:00) 12.9 12.22 (03:40) 10.56 (03:40) 21.4 11.2 3.4 3.2 3.6
24-01-2020 15.4 (13:20) 10.9 (00:00) 13.1 18.61 (23:00) 11.11 (19:30) 23.2 5.2 0.2 0 17.8
23-01-2020 -- (--) -- (--) -- -- (--) -- (--) -- 0.8 -- 0 19.2
22-01-2020 13.6 (21:30) 9.8 (00:00) 11.7 9.17 (01:30) 7.78 (01:30) 11.2 6.6 0 3.2 1.4
21-01-2020 15.5 (14:50) 9.7 (00:00) 12.6 7.78 (04:10) 5.28 (19:40) 9.2 0 0 7.6 1.6
20-01-2020 12 (00:10) 7.8 (00:00) 9.9 13.61 (05:20) 8.33 (07:20) 7 0.2 0 4 2.8
19-01-2020 17 (14:30) 11.5 (00:00) 14.3 16.67 (21:30) 11.94 (00:10) 0 0 0 0 0
18-01-2020 17.5 (14:30) 12.5 (00:00) 15 14.17 (23:59) 12.22 (23:59) 0 0 0 0 0

Gráficas

Temp. máximas Temp. mínimas Temp. medias Precipitaciones Rachas de viento máximas Velocidades máximas media en intervalos de 10 minutos

Datos horarios

Fecha y hora oficial Temperatura (ºC) Velocidad del viento (km/h) Dirección del viento Racha (km/h) Dirección de racha Precipitación (mm) Presión (hPa) Tendencia (hPa) Humedad (%)
2020-02-16 23:00:00 13.2 8 Noroeste 11 Noroeste 0 -- -- 87
2020-02-16 22:00:00 13.4 7 Noroeste 9 Noroeste 0 -- -- 86
2020-02-16 21:00:00 13.6 6 Noroeste 10 Oeste 0 -- -- 86
2020-02-16 20:00:00 14 8 Noroeste 15 Oeste 0 -- -- 85
2020-02-16 19:00:00 15.3 12 Oeste 15 Sudoeste 0 -- -- 82
2020-02-16 18:00:00 16.1 12 Sudoeste 15 Sudoeste 0 -- -- 78
2020-02-16 17:00:00 16.5 10 Sudoeste 14 Sudoeste 0 -- -- 76
2020-02-16 16:00:00 15.9 10 Sudoeste 13 Sudoeste 0 -- -- 76
2020-02-16 15:00:00 16.1 8 Sudoeste 12 Sur 0 -- -- 75
2020-02-16 14:00:00 16.3 7 Sur 12 Sur 0 -- -- 73
2020-02-16 13:00:00 16.5 8 Sur 13 Sur 0 -- -- 72
2020-02-16 12:00:00 15.9 6 Sur 9 Sur 0 -- -- 74
2020-02-16 11:00:00 15.1 4 Oeste 10 Oeste 0 -- -- 76
2020-02-16 10:00:00 14.5 3 Oeste 8 Noroeste 0 -- -- 80
2020-02-16 09:00:00 13.7 5 Noroeste 9 Noroeste 0 -- -- 84
2020-02-16 08:00:00 13.7 6 Norte 12 Norte 0 -- -- 84
2020-02-16 07:00:00 13.7 9 Norte 12 Norte 0 -- -- 84
2020-02-16 06:00:00 13.9 8 Norte 13 Norte 0 -- -- 86
2020-02-16 05:00:00 13.6 6 Norte 9 Norte 0 -- -- 90
2020-02-16 04:00:00 13.2 7 Norte 11 Norte 0 -- -- 91
2020-02-16 03:00:00 13 8 Norte 9 Norte 0 -- -- 90
2020-02-16 02:00:00 13 7 Norte 12 Norte 0 -- -- 88
2020-02-16 01:00:00 13.1 6 Norte 10 Nordeste 0 -- -- 88
2020-02-16 00:00:00 13.8 10 Nordeste 13 Nordeste 0 -- -- 87
2020-02-15 23:00:00 13.3 3 Nordeste 5 Norte 0 -- -- 88
2020-02-15 22:00:00 13.7 5 Norte 7 Noroeste 0 -- -- 87
2020-02-15 21:00:00 14.2 5 Noroeste 9 Noroeste 0 -- -- 85
2020-02-15 20:00:00 14.8 6 Oeste 10 Oeste 0 -- -- 83
2020-02-15 19:00:00 15.9 7 Oeste 10 Sudoeste 0 -- -- 80
2020-02-15 18:00:00 17.1 9 Sudoeste 10 Sudoeste 0 -- -- 76
2020-02-15 17:00:00 17.5 6 Sudoeste 8 Sur 0 -- -- 72
2020-02-15 16:00:00 18 4 Sudeste 8 Sudeste 0 -- -- 71
2020-02-15 15:00:00 17.3 8 Sudeste 10 Sudeste 0 -- -- 73
2020-02-15 14:00:00 16.7 9 Sudeste 14 Este 0 -- -- 75
2020-02-15 13:00:00 16.3 13 Este 15 Este 0 -- -- 79
2020-02-15 12:00:00 18 4 Sudeste 8 Sudeste 0 -- -- 75
2020-02-15 11:00:00 17.8 4 Sudeste 6 Sur 0 -- -- 74
2020-02-15 10:00:00 17.3 2 Este 5 Noroeste 0 -- -- 71
2020-02-15 09:00:00 13.9 0 Calma 5 Noroeste 0 -- -- 85
2020-02-15 08:00:00 11.3 0 Calma 6 Nordeste 0 -- -- 92
2020-02-15 07:00:00 12 2 Nordeste 7 Norte 0 -- -- 93
2020-02-15 06:00:00 12.4 6 Norte 8 Norte 0 -- -- 91
2020-02-15 05:00:00 12.6 6 Noroeste 10 Noroeste 0 -- -- 90
2020-02-15 04:00:00 12.2 6 Noroeste 10 Nordeste 0 -- -- 89
2020-02-15 03:00:00 12.4 6 Nordeste 10 Nordeste 0 -- -- 87
2020-02-15 02:00:00 12.5 7 Nordeste 9 Este 0 -- -- 89
2020-02-15 01:00:00 12.6 3 Nordeste 5 Nordeste 0 -- -- 89
2020-02-15 00:00:00 13.2 4 Norte 5 Norte 0 -- -- 89
2020-02-14 23:00:00 13.7 0 Calma 2 Nordeste 0 -- -- 90
2020-02-14 22:00:00 13.7 0 Calma 7 Noroeste 0 -- -- 88
2020-02-14 21:00:00 14.5 5 Norte 8 Nordeste 0 -- -- 90
2020-02-14 20:00:00 15.2 6 Nordeste 13 Este 0 -- -- 89
2020-02-14 19:00:00 16 13 Este 16 Este 0 -- -- 88
2020-02-14 18:00:00 16.7 14 Este 18 Nordeste 0 -- -- 86
2020-02-14 17:00:00 17.3 16 Este 22 Este 0 -- -- 83
2020-02-14 16:00:00 16.9 19 Este 24 Este 0 -- -- 84
2020-02-14 15:00:00 16.7 23 Este 28 Este 0 -- -- 83
2020-02-14 14:00:00 16.7 26 Este 28 Este 0 -- -- 79
2020-02-14 13:00:00 16.8 26 Este 29 Este 0 -- -- 77
2020-02-14 12:00:00 17 18 Este 21 Este 0 -- -- 73
2020-02-14 11:00:00 17.7 8 Sudeste 9 Este 0 -- -- 69
2020-02-14 10:00:00 20.3 0 Calma 4 Noroeste 0 -- -- 59
2020-02-14 09:00:00 15 0 Calma 4 Noroeste 0 -- -- 73
2020-02-14 08:00:00 12.8 0 Calma 5 Sudoeste 0 -- -- 78
2020-02-14 07:00:00 13.4 0 Calma 6 Nordeste 0 -- -- 80
2020-02-14 06:00:00 13.4 2 Nordeste 4 Nordeste 0 -- -- 79
2020-02-14 05:00:00 13.7 0 Calma 6 Noroeste 0 -- -- 74
2020-02-14 04:00:00 14.5 2 Oeste 12 Oeste 0 -- -- 69
2020-02-14 03:00:00 14.1 7 Oeste 9 Oeste 0 -- -- 73
2020-02-14 02:00:00 15.9 8 Sudoeste 28 Norte 0 -- -- 70
2020-02-14 01:00:00 17.1 17 Norte 27 Noroeste 0 -- -- 59
2020-02-14 00:00:00 17.2 14 Norte 30 Norte 0 -- -- 59
2020-02-13 23:00:00 17.4 17 Norte 31 Noroeste 0 -- -- 59
2020-02-13 22:00:00 16.8 8 Noroeste 20 Norte 0 -- -- 62
2020-02-13 21:00:00 15.9 7 Noroeste 17 Norte 0 -- -- 68
2020-02-13 20:00:00 15.9 7 Norte 11 Norte 0 -- -- 73
2020-02-13 19:00:00 17.3 3 Oeste 15 Oeste 0 -- -- 75
2020-02-13 18:00:00 17.8 13 Oeste 27 Sudoeste 0 -- -- 75
2020-02-13 17:00:00 17.2 15 Oeste 24 Sudoeste 0 -- -- 82
2020-02-13 16:00:00 17.1 18 Sudoeste 22 Sudoeste 0 -- -- 82
2020-02-13 15:00:00 17.3 8 Sudoeste 17 Sudoeste 0 -- -- 81
2020-02-13 14:00:00 16.8 9 Sudoeste 14 Sudoeste 0 -- -- 84
2020-02-13 13:00:00 16 9 Sudoeste 11 Sudoeste 0 -- -- 82
2020-02-13 12:00:00 16.1 6 Sudoeste 12 Sudoeste 0 -- -- 81
2020-02-13 11:00:00 16.2 10 Sudoeste 12 Sudoeste 0 -- -- 82
2020-02-13 10:00:00 15.1 7 Noroeste 9 Noroeste 0 -- -- 86
2020-02-13 09:00:00 15 6 Sur 12 Sur 0 -- -- 85
2020-02-13 08:00:00 14.1 0 Calma 8 Norte 0 -- -- 88
2020-02-13 07:00:00 13.4 5 Noroeste 10 Oeste 0 -- -- 90
2020-02-13 06:00:00 13.7 8 Noroeste 11 Noroeste 0 -- -- 89
2020-02-13 05:00:00 13.7 7 Noroeste 10 Noroeste 0 -- -- 90
2020-02-13 04:00:00 13.9 6 Noroeste 8 Noroeste 0 -- -- 89
2020-02-13 03:00:00 13.9 5 Noroeste 12 Noroeste 0 -- -- 87
2020-02-13 02:00:00 13.7 6 Noroeste 12 Nordeste 0 -- -- 85
2020-02-13 01:00:00 14.7 6 Nordeste 14 Este 0 -- -- 81
2020-02-13 00:00:00 15.5 12 Nordeste 15 Nordeste 0 -- -- 79
2020-02-12 23:00:00 15.9 12 Nordeste 30 Nordeste 0 -- -- 79
2020-02-12 22:00:00 15.5 18 Nordeste 22 Nordeste 0 -- -- 87
2020-02-12 21:00:00 15.7 10 Nordeste 13 Oeste 0 -- -- 83
2020-02-12 20:00:00 16.5 12 Oeste 26 Oeste 0 -- -- 80
2020-02-12 19:00:00 17.1 18 Oeste 24 Oeste 0 -- -- 77
2020-02-12 18:00:00 17.7 13 Oeste 20 Oeste 0 -- -- 75
2020-02-12 17:00:00 17.4 9 Sudoeste 15 Oeste 0 -- -- 80
2020-02-12 16:00:00 17.3 14 Oeste 24 Oeste 0 -- -- 81
2020-02-12 15:00:00 17.5 17 Oeste 28 Oeste 0 -- -- 77
2020-02-12 14:00:00 17.1 18 Oeste 31 Sudoeste 0 -- -- 78
2020-02-12 13:00:00 16.9 21 Sudoeste 25 Sudoeste 0 -- -- 77
2020-02-12 12:00:00 16.6 13 Oeste 16 Sudoeste 0 -- -- 79
2020-02-12 11:00:00 16.4 12 Sudoeste 15 Sudoeste 0 -- -- 80
2020-02-12 10:00:00 17.1 10 Sur 14 Sur 0 -- -- 77
2020-02-12 09:00:00 16.4 0 Calma 8 Noroeste 0 -- -- 77
2020-02-12 08:00:00 13.5 6 Noroeste 12 Nordeste 0 -- -- 82
2020-02-12 07:00:00 14.6 8 Nordeste 15 Norte 0 -- -- 79
2020-02-12 06:00:00 13.4 0 Calma 8 Oeste 0 -- -- 88
2020-02-12 05:00:00 13.5 5 Oeste 13 Oeste 0 -- -- 91
2020-02-12 04:00:00 14.2 5 Noroeste 16 Oeste 0 -- -- 86
2020-02-12 03:00:00 13.9 6 Oeste 11 Oeste 0 -- -- 82
2020-02-12 02:00:00 14.2 5 Noroeste 10 Oeste 0 -- -- 86
2020-02-12 01:00:00 14.1 5 Oeste 12 Noroeste 0 -- -- 87
2020-02-12 00:00:00 15.3 9 Noroeste 13 Noroeste 0 -- -- 83
2020-02-11 23:00:00 14.7 9 Oeste 12 Noroeste 0 -- -- 89
2020-02-11 22:00:00 15.3 3 Nordeste 5 Nordeste 0 -- -- 89
2020-02-11 21:00:00 16.2 0 Calma 9 Sur 0 -- -- 88
2020-02-11 20:00:00 17 8 Sur 9 Sur 0 -- -- 86
2020-02-11 19:00:00 17.4 8 Oeste 15 Sudoeste 0 -- -- 81
2020-02-11 18:00:00 18.8 12 Sudoeste 14 Sudoeste 0 -- -- 74
2020-02-11 17:00:00 19.5 10 Oeste 12 Oeste 0 -- -- 65
2020-02-11 16:00:00 18.8 12 Oeste 17 Oeste 0 -- -- 69
2020-02-11 15:00:00 17.4 11 Sudoeste 15 Sudoeste 0 -- -- 76
2020-02-11 14:00:00 16.8 9 Sudoeste 12 Sudoeste 0 -- -- 76
2020-02-11 13:00:00 16.3 10 Sudoeste 12 Sudoeste 0 -- -- 82
2020-02-11 12:00:00 16.2 9 Sudoeste 12 Sudoeste 0 -- -- 80
2020-02-11 11:00:00 16.1 10 Sudoeste 12 Oeste 0 -- -- 72
2020-02-11 10:00:00 15.3 10 Oeste 13 Oeste 0 -- -- 72
2020-02-11 09:00:00 13.4 9 Oeste 11 Oeste 0 -- -- 71
2020-02-11 08:00:00 12.2 6 Oeste 8 Oeste 0 -- -- 74
2020-02-11 07:00:00 12.8 6 Noroeste 11 Oeste 0 -- -- 74
2020-02-11 06:00:00 11.7 7 Oeste 12 Noroeste 0 -- -- 81
2020-02-11 05:00:00 12.9 8 Noroeste 16 Noroeste 0 -- -- 78
2020-02-11 04:00:00 13.2 9 Noroeste 11 Oeste 0 -- -- 80
2020-02-11 03:00:00 12.8 10 Oeste 12 Oeste 0 -- -- 82
2020-02-11 02:00:00 13.9 6 Noroeste 13 Noroeste 0 -- -- 81
2020-02-11 01:00:00 13.8 8 Noroeste 17 Noroeste 0 -- -- 86
2020-02-11 00:00:00 13.3 8 Noroeste 13 Oeste 0 -- -- 89
2020-02-10 23:00:00 13.5 10 Oeste 15 Noroeste 0 -- -- 88
2020-02-10 22:00:00 13.5 10 Oeste 13 Noroeste 0 -- -- 89
2020-02-10 21:00:00 13.9 12 Noroeste 15 Noroeste 0 -- -- 89
2020-02-10 20:00:00 14.2 9 Noroeste 14 Oeste 0 -- -- 88
2020-02-10 19:00:00 15.5 12 Oeste 14 Oeste 0 -- -- 86
2020-02-10 18:00:00 16.8 9 Sudoeste 10 Sudoeste 0 -- -- 80
2020-02-10 17:00:00 16.8 9 Sudoeste 10 Sudoeste 0 -- -- 80
2020-02-10 16:00:00 17.1 5 Sudoeste 8 Sur 0 -- -- 78
2020-02-10 15:00:00 17.4 4 Sur 15 Sudeste 0 -- -- 76
2020-02-10 14:00:00 17 12 Sudeste 15 Sudeste 0 -- -- 76
2020-02-10 13:00:00 17.8 4 Sudeste 10 Sudeste 0 -- -- 70
2020-02-10 12:00:00 18.6 4 Sudeste 6 Sur 0 -- -- 65
2020-02-10 11:00:00 17.5 2 Sudoeste 9 Sudoeste 0 -- -- 67
2020-02-10 10:00:00 15.9 5 Oeste 8 Oeste 0 -- -- 70
2020-02-10 09:00:00 14.2 3 Nordeste 5 Nordeste 0 -- -- 77
2020-02-10 08:00:00 12.1 0 Calma 4 Nordeste 0 -- -- 82
2020-02-10 07:00:00 11.8 2 Nordeste 7 Norte 0 -- -- 84
2020-02-10 06:00:00 12.1 0 Calma 5 Norte 0 -- -- 84
2020-02-10 05:00:00 12.5 6 Nordeste 10 Norte 0 -- -- 84
2020-02-10 04:00:00 13 7 Norte 10 Nordeste 0 -- -- 79
2020-02-10 03:00:00 12.9 6 Nordeste 10 Nordeste 0 -- -- 79
2020-02-10 02:00:00 13.2 5 Nordeste 10 Nordeste 0 -- -- 78
2020-02-10 01:00:00 13.5 6 Norte 11 Nordeste 0 -- -- 80
2020-02-10 00:00:00 14.3 6 Nordeste 14 Nordeste 0 -- -- 75
2020-02-09 23:00:00 14.9 8 Nordeste 13 Nordeste 0 -- -- 72
2020-02-09 22:00:00 14 5 Norte 8 Nordeste 0 -- -- 77
2020-02-09 21:00:00 15 5 Este 9 Nordeste 0 -- -- 80
2020-02-09 20:00:00 15.3 6 Nordeste 10 Nordeste 0 -- -- 79
2020-02-09 19:00:00 16.2 6 Nordeste 18 Este 0 -- -- 74
2020-02-09 18:00:00 17.6 14 Este 20 Este 0 -- -- 70
2020-02-09 17:00:00 17.4 19 Este 22 Este 0 -- -- 77
2020-02-09 16:00:00 17.6 9 Este 11 Este 0 -- -- 76
2020-02-09 15:00:00 17.5 11 Este 20 Este 0 -- -- 77
2020-02-09 14:00:00 17.2 19 Este 23 Este 0 -- -- 76
2020-02-09 13:00:00 18.3 4 Sudeste 24 Este 0 -- -- 72
2020-02-09 12:00:00 16.7 22 Este 33 Este 0 -- -- 82
2020-02-09 11:00:00 18.3 21 Nordeste 29 Nordeste 0 -- -- 59
2020-02-09 10:00:00 17.5 4 Sudoeste 10 Oeste 0 -- -- 68
2020-02-09 09:00:00 13.8 3 Oeste 9 Noroeste 0 -- -- 78
2020-02-09 08:00:00 13.4 9 Noroeste 11 Noroeste 0 -- -- 74
2020-02-09 07:00:00 12.7 0 Calma 4 Norte 0 -- -- 79
2020-02-09 06:00:00 12.9 0 Calma 8 Noroeste 0 -- -- 78
2020-02-09 05:00:00 14 8 Norte 13 Noroeste 0 -- -- 69
2020-02-09 04:00:00 13.8 5 Oeste 11 Sudoeste 0 -- -- 74
2020-02-09 03:00:00 14.4 8 Oeste 18 Norte 0 -- -- 73
2020-02-09 02:00:00 15.9 11 Noroeste 22 Noroeste 0 -- -- 64
2020-02-09 01:00:00 13.9 0 Calma 12 Oeste 0 -- -- 78
2020-02-09 00:00:00 14.8 7 Noroeste 14 Norte 0 -- -- 75
2020-02-08 23:00:00 14.5 8 Norte 11 Norte 0 -- -- 75
2020-02-08 22:00:00 14.5 4 Sudoeste 8 Norte 0 -- -- 81
2020-02-08 21:00:00 14.7 0 Calma 7 Norte 0 -- -- 86
2020-02-08 20:00:00 14.9 0 Calma 9 Oeste 0 -- -- 86
2020-02-08 19:00:00 16.4 6 Oeste 21 Oeste 0 -- -- 82
2020-02-08 18:00:00 17 12 Oeste 18 Oeste 0 -- -- 79
2020-02-08 17:00:00 16.9 13 Oeste 33 Sudoeste 0 -- -- 80
2020-02-08 16:00:00 17 12 Oeste 33 Sudoeste 0 -- -- 81
2020-02-08 15:00:00 16.9 14 Oeste 27 Sudoeste 0 -- -- 77
2020-02-08 14:00:00 16.9 7 Oeste 14 Oeste 0 -- -- 78
2020-02-08 13:00:00 16.2 14 Oeste 15 Sudoeste 0 -- -- 78
2020-02-08 12:00:00 15.9 9 Oeste 13 Oeste 0 -- -- 80
2020-02-08 11:00:00 15.8 9 Oeste 11 Oeste 0 -- -- 75
2020-02-08 10:00:00 14.9 8 Oeste 12 Oeste 0 -- -- 79
2020-02-08 09:00:00 13.4 2 Noroeste 9 Nordeste 0 -- -- 83
2020-02-08 08:00:00 12.6 5 Norte 12 Noroeste 0 -- -- 88
2020-02-08 07:00:00 12.6 7 Norte 11 Nordeste 0 -- -- 88
2020-02-08 06:00:00 13.4 4 Nordeste 10 Este 0 -- -- 86
2020-02-08 05:00:00 13.8 5 Nordeste 7 Este 0 -- -- 85
2020-02-08 04:00:00 13.3 2 Noroeste 8 Noroeste 0 -- -- 85
2020-02-08 03:00:00 13.7 6 Noroeste 9 Oeste 0 -- -- 85
2020-02-08 02:00:00 13.5 5 Noroeste 10 Sudoeste 0 -- -- 84
2020-02-08 01:00:00 14.4 4 Noroeste 12 Noroeste 0 -- -- 81
2020-02-08 00:00:00 14.4 8 Noroeste 12 Oeste 0 -- -- 81
2020-02-07 23:00:00 13.8 9 Noroeste 14 Noroeste 0 -- -- 84
2020-02-07 22:00:00 13.5 10 Noroeste 17 Oeste 0 -- -- 84
2020-02-07 21:00:00 13.9 12 Oeste 22 Oeste 0 -- -- 83
2020-02-07 20:00:00 15.1 20 Oeste 27 Oeste 0 -- -- 81
2020-02-07 19:00:00 15.1 17 Oeste 21 Oeste 0 -- -- 81
2020-02-07 18:00:00 15.1 14 Oeste 17 Sudoeste 0 -- -- 81
2020-02-07 17:00:00 15.3 14 Oeste 18 Oeste 0 -- -- 78
2020-02-07 16:00:00 15.5 13 Sudoeste 15 Sudoeste 0 -- -- 77
2020-02-07 15:00:00 16.3 6 Sur 10 Sudeste 0 -- -- 69
2020-02-07 14:00:00 16.5 8 Sudeste 14 Sudeste 0 -- -- 71
2020-02-07 13:00:00 16 12 Este 18 Este 0 -- -- 72
2020-02-07 12:00:00 15.9 12 Este 18 Este 0 -- -- 71
2020-02-07 11:00:00 16 15 Este 17 Nordeste 0 -- -- 72
2020-02-07 10:00:00 15.4 10 Este 19 Este 0 -- -- 74
2020-02-07 09:00:00 14.5 16 Este 20 Este 0 -- -- 77
2020-02-07 08:00:00 14.5 12 Este 21 Este 0 -- -- 78
2020-02-07 07:00:00 14.5 17 Este 21 Este 0 -- -- 78
2020-02-07 06:00:00 14.5 20 Este 23 Este 0 -- -- 78
2020-02-07 05:00:00 14.5 17 Este 21 Este 0 -- -- 80
2020-02-07 04:00:00 14.5 14 Este 21 Este 0 -- -- 78
2020-02-07 03:00:00 14.4 16 Este 21 Este 0 -- -- 79
2020-02-07 02:00:00 14.4 15 Este 19 Este 0 -- -- 80
2020-02-07 01:00:00 14.3 12 Nordeste 23 Este 0 -- -- 79
2020-02-07 00:00:00 14.6 18 Este 22 Este 0 -- -- 77
2020-02-06 23:00:00 14.6 17 Este 21 Este 0 -- -- 78
2020-02-06 22:00:00 13.8 6 Nordeste 21 Nordeste 0 -- -- 79
2020-02-06 21:00:00 14.5 15 Este 23 Este 0 -- -- 75
2020-02-06 20:00:00 14.6 17 Este 22 Este 0 -- -- 77
2020-02-06 19:00:00 14.7 19 Este 24 Este 0 -- -- 78
2020-02-06 18:00:00 15.1 21 Este 27 Este 0 -- -- 75
2020-02-06 17:00:00 15.7 23 Este 30 Este 0 -- -- 73
2020-02-06 16:00:00 15.1 24 Este 31 Este 0 -- -- 76
2020-02-06 15:00:00 15.1 25 Este 30 Este 0 -- -- 76
2020-02-06 14:00:00 15 28 Este 34 Este 0 -- -- 75
2020-02-06 13:00:00 14.9 28 Este 34 Este 0 -- -- 75
2020-02-06 12:00:00 14.8 29 Este 35 Este 0 -- -- 75
2020-02-06 11:00:00 14.9 28 Este 35 Este 0 -- -- 77
2020-02-06 10:00:00 14.2 21 Nordeste 37 Este 0 -- -- 79
2020-02-06 09:00:00 14.7 29 Este 37 Este 0 -- -- 76
2020-02-06 08:00:00 14.6 31 Este 38 Este 0 -- -- 78
2020-02-06 07:00:00 14.7 31 Este 38 Este 0 -- -- 79
2020-02-06 06:00:00 14.7 30 Este 37 Este 0 -- -- 78
2020-02-06 05:00:00 14.8 31 Este 37 Este 0 -- -- 77
2020-02-06 04:00:00 14.9 29 Este 36 Este 0 -- -- 77
2020-02-06 03:00:00 14.9 23 Este 31 Este 0 -- -- 79
2020-02-06 02:00:00 14.8 23 Este 31 Este 0 -- -- 80
2020-02-06 01:00:00 15 24 Este 32 Este 0 -- -- 81
2020-02-06 00:00:00 15 26 Este 32 Este 0 -- -- 81
2020-02-05 23:00:00 15.1 22 Este 28 Este 0 -- -- 82
2020-02-05 22:00:00 15.2 23 Este 27 Este 0 -- -- 83
2020-02-05 21:00:00 15.3 20 Este 29 Este 0 -- -- 82
2020-02-05 20:00:00 15.5 17 Nordeste 24 Nordeste 0 -- -- 84
2020-02-05 19:00:00 15.4 14 Nordeste 22 Este 0 -- -- 83
2020-02-05 18:00:00 15.8 19 Nordeste 28 Nordeste 0 -- -- 80
2020-02-05 17:00:00 16.9 18 Este 24 Nordeste 0 -- -- 76
2020-02-05 16:00:00 16.1 15 Este 22 Este 0 -- -- 80
2020-02-05 15:00:00 16.2 19 Este 25 Este 0 -- -- 81
2020-02-05 14:00:00 16.1 24 Este 31 Nordeste 0 -- -- 82
2020-02-05 13:00:00 16 22 Este 37 Nordeste 0 -- -- 79
2020-02-05 12:00:00 15.7 18 Nordeste 29 Nordeste 0 -- -- 78
2020-02-05 11:00:00 14.9 15 Nordeste 38 Nordeste 0 -- -- 80
2020-02-05 10:00:00 15.9 22 Nordeste 34 Nordeste 0 -- -- 71
2020-02-05 09:00:00 15.1 21 Nordeste 32 Nordeste 0 -- -- 72
2020-02-05 08:00:00 12.1 22 Nordeste 29 Nordeste 0 -- -- 96
2020-02-05 07:00:00 11.9 20 Nordeste 29 Nordeste 0 -- -- 98
2020-02-05 06:00:00 11.9 13 Nordeste 20 Nordeste 0 -- -- 98
2020-02-05 05:00:00 11.9 14 Nordeste 28 Nordeste 0 -- -- 99
2020-02-05 04:00:00 12.1 16 Nordeste 22 Nordeste 0 -- -- 99
2020-02-05 03:00:00 11.4 20 Nordeste 27 Nordeste 0 -- -- 99
2020-02-05 02:00:00 12 4 Oeste 19 Sudoeste 0 -- -- 98
2020-02-05 01:00:00 12.5 14 Sudoeste 19 Sudoeste 0 -- -- 98
2020-02-05 00:00:00 12.8 14 Oeste 23 Oeste 0 -- -- 98
2020-02-04 23:00:00 13 14 Oeste 19 Oeste 0 -- -- 98
2020-02-04 22:00:00 13.1 8 Oeste 14 Oeste 0 -- -- 98
2020-02-04 21:00:00 13.2 9 Sudoeste 13 Sudoeste 0 -- -- 98
2020-02-04 20:00:00 13.2 4 Sudoeste 13 Oeste 0 -- -- 97
2020-02-04 19:00:00 13.5 7 Sudoeste 15 Sudoeste 0 -- -- 97
2020-02-04 18:00:00 13.5 10 Sudoeste 14 Oeste 0 -- -- 97
2020-02-04 12:00:00 -- -- -- -- -- -- -- -- --
2020-02-04 11:00:00 -- -- -- -- -- -- -- -- --
2020-02-04 10:00:00 -- -- -- -- -- -- -- -- --
2020-02-04 09:00:00 13.4 3 Nordeste 5 Este 0 -- -- 88
2020-02-04 08:00:00 11.6 0 Calma 4 Nordeste 0 -- -- 90
2020-02-04 07:00:00 11.7 0 Calma 5 Este 0 -- -- 88
2020-02-04 06:00:00 11.9 0 Calma 5 Nordeste 0 -- -- 83
2020-02-04 05:00:00 12.6 2 Este 8 Nordeste 0 -- -- 81
2020-02-04 04:00:00 12.6 0 Calma 9 Oeste 0 -- -- 79
2020-02-04 03:00:00 13 3 Sudoeste 9 Oeste 0 -- -- 80
2020-02-04 02:00:00 13.9 8 Oeste 12 Oeste 0 -- -- 74
2020-02-04 01:00:00 15.4 9 Noroeste 12 Oeste 0 -- -- 67
2020-02-04 00:00:00 15.2 6 Oeste 10 Noroeste 0 -- -- 72
2020-02-03 23:00:00 13.9 0 Calma 9 Noroeste 0 -- -- 78
2020-02-03 22:00:00 15.4 8 Noroeste 14 Oeste 0 -- -- 73
2020-02-03 21:00:00 14.6 12 Oeste 15 Oeste 0 -- -- 80
2020-02-03 20:00:00 15 9 Oeste 12 Oeste 0 -- -- 82
2020-02-03 19:00:00 16.3 11 Oeste 13 Oeste 0 -- -- 80
2020-02-03 18:00:00 17.9 10 Oeste 12 Oeste 0 -- -- 79
2020-02-03 17:00:00 18.1 7 Oeste 9 Oeste 0 -- -- 76
2020-02-03 16:00:00 17.9 5 Oeste 9 Sudoeste 0 -- -- 77
2020-02-03 15:00:00 17.3 9 Sudoeste 10 Oeste 0 -- -- 81
2020-02-03 14:00:00 17.1 9 Sudoeste 15 Oeste 0 -- -- 84
2020-02-03 13:00:00 17.8 8 Sudoeste 17 Este 0 -- -- 74
2020-02-03 12:00:00 18.1 17 Este 20 Este 0 -- -- 71
2020-02-03 11:00:00 18.9 12 Este 18 Este 0 -- -- 65
2020-02-03 10:00:00 16.8 3 Oeste 8 Oeste 0 -- -- 73
2020-02-03 09:00:00 14.6 2 Sudoeste 6 Nordeste 0 -- -- 79
2020-02-03 08:00:00 13 0 Calma -- -- 0 -- -- 82
2020-02-03 07:00:00 13.1 0 Calma 0 Calma 0 -- -- 85
2020-02-03 06:00:00 12.6 0 Calma 3 Nordeste 0 -- -- 84
2020-02-03 05:00:00 12.7 0 Calma 7 Noroeste 0 -- -- 83
2020-02-03 04:00:00 13.5 6 Noroeste 10 Oeste 0 -- -- 81
2020-02-03 03:00:00 13.3 3 Oeste 3 Oeste 0 -- -- 85
2020-02-03 02:00:00 13.5 3 Nordeste 5 Nordeste 0 -- -- 82
2020-02-03 01:00:00 13.5 0 Calma 3 Nordeste 0 -- -- 81
2020-02-03 00:00:00 13.8 0 Calma 5 Norte 0 -- -- 83
2020-02-02 23:00:00 13.7 0 Calma 4 Norte 0 -- -- 87
2020-02-02 22:00:00 14.5 0 Calma 5 Noroeste 0 -- -- 85
2020-02-02 21:00:00 15 3 Oeste 5 Oeste 0 -- -- 83
2020-02-02 20:00:00 15.8 4 Nordeste 13 Este 0 -- -- 81
2020-02-02 19:00:00 16.5 14 Este 21 Este 0 -- -- 86
2020-02-02 18:00:00 17.4 19 Este 21 Este 0 -- -- 83
2020-02-02 17:00:00 17.9 13 Este 19 Este 0 -- -- 79
2020-02-02 16:00:00 17.6 17 Este 22 Este 0 -- -- 82
2020-02-02 15:00:00 17.6 19 Este 27 Este 0 -- -- 80
2020-02-02 14:00:00 17.7 23 Este 29 Este 0 -- -- 77
2020-02-02 13:00:00 17.8 25 Este 30 Este 0 -- -- 75
2020-02-02 12:00:00 18 24 Este 28 Nordeste 0 -- -- 71
2020-02-02 11:00:00 18.3 16 Este 26 Nordeste 0 -- -- 69
2020-02-02 10:00:00 17.8 15 Nordeste 20 Nordeste 0 -- -- 68
2020-02-02 09:00:00 14.7 5 Nordeste 8 Nordeste 0 -- -- 85
2020-02-02 08:00:00 13.3 2 Noroeste 8 Norte 0 -- -- 88
2020-02-02 07:00:00 13.3 6 Nordeste 7 Nordeste 0 -- -- 87
2020-02-02 06:00:00 13.4 0 Calma 10 Noroeste 0 -- -- 84
2020-02-02 05:00:00 14.5 9 Noroeste 11 Noroeste 0 -- -- 82
2020-02-02 04:00:00 14 6 Noroeste 7 Noroeste 0 -- -- 84
2020-02-02 03:00:00 13.7 3 Oeste 8 Oeste 0 -- -- 82
2020-02-02 02:00:00 15.4 8 Noroeste 11 Noroeste 0 -- -- 75
2020-02-02 01:00:00 16.2 8 Nordeste 15 Nordeste 0 -- -- 77
2020-02-02 00:00:00 17.8 3 Norte 16 Noroeste 0 -- -- 69
2020-02-01 23:00:00 17.9 6 Noroeste 12 Oeste 0 -- -- 63
2020-02-01 22:00:00 17.1 6 Noroeste 12 Noroeste 0 -- -- 71
2020-02-01 21:00:00 18.1 9 Oeste 15 Noroeste 0 -- -- 71
2020-02-01 20:00:00 16.9 4 Noroeste 12 Oeste 0 -- -- 76
2020-02-01 19:00:00 17.5 5 Oeste 17 Sudoeste 0 -- -- 77
2020-02-01 18:00:00 18.8 8 Sudoeste 13 Sur 0 -- -- 77
2020-02-01 17:00:00 19.3 9 Sur 17 Sur 0 -- -- 72
2020-02-01 16:00:00 17.6 17 Sudoeste 22 Sudoeste 0 -- -- 78
2020-02-01 15:00:00 18.2 15 Oeste 24 Oeste 0 -- -- 70
2020-02-01 14:00:00 17.7 19 Oeste 21 Oeste 0 -- -- 73
2020-02-01 13:00:00 17.3 17 Oeste 20 Oeste 0 -- -- 77
2020-02-01 12:00:00 17.5 12 Oeste 23 Oeste 0 -- -- 72
2020-02-01 11:00:00 16.3 18 Sudoeste 26 Sudoeste 0 -- -- 80
2020-02-01 10:00:00 16.7 14 Oeste 37 Oeste 0 -- -- 77
2020-02-01 09:00:00 17.4 17 Norte 34 Norte 0 -- -- 69
2020-02-01 08:00:00 15 0 Calma 13 Oeste 0 -- -- 79
2020-02-01 07:00:00 14.8 2 Oeste 12 Oeste 0 -- -- 81
2020-02-01 06:00:00 15.2 8 Oeste 21 Oeste 0 -- -- 80
2020-02-01 05:00:00 14.5 7 Oeste 16 Noroeste 0 -- -- 88
2020-02-01 04:00:00 14.7 8 Oeste 13 Oeste 0 -- -- 89
2020-02-01 03:00:00 15.1 3 Sudoeste 13 Oeste 0 -- -- 84
2020-02-01 02:00:00 14.9 5 Oeste 15 Sudoeste 0 -- -- 86
2020-02-01 01:00:00 15.6 7 Oeste 27 Norte 0 -- -- 81
2020-02-01 00:00:00 17 18 Norte 27 Norte 0 -- -- 73
2020-01-31 23:00:00 15.4 7 Noroeste 16 Sudoeste 0 -- -- 85
2020-01-31 22:00:00 17.2 10 Oeste 24 Norte 0 -- -- 76
2020-01-31 21:00:00 18.2 12 Norte 21 Norte 0 -- -- 69
2020-01-31 20:00:00 15.9 0 Calma 8 Sudoeste 0 -- -- 77
2020-01-31 19:00:00 17 2 Noroeste 10 Sudoeste 0 -- -- 70
2020-01-31 18:00:00 19.1 3 Oeste 9 Oeste 0 -- -- 64
2020-01-31 17:00:00 18.9 5 Sudoeste 11 Oeste 0 -- -- 62
2020-01-31 16:00:00 17.8 11 Oeste 21 Sudoeste 0 -- -- 65
2020-01-31 15:00:00 16.7 19 Sudoeste 21 Sudoeste 0 -- -- 73
2020-01-31 14:00:00 16.3 12 Oeste 17 Sudoeste 0 -- -- 72
2020-01-31 13:00:00 15.9 12 Sudoeste 17 Sudoeste 0 -- -- 79
2020-01-31 12:00:00 15.7 10 Oeste 12 Oeste 0 -- -- 77
2020-01-31 11:00:00 15.6 10 Oeste 13 Sudoeste 0 -- -- 79
2020-01-31 10:00:00 17 4 Oeste 8 Oeste 0 -- -- 66
2020-01-31 09:00:00 14.6 5 Norte 6 Norte 0 -- -- 60
2020-01-31 08:00:00 13.2 0 Calma 5 Nordeste 0 -- -- 73
2020-01-31 07:00:00 12.8 5 Nordeste 6 Nordeste 0 -- -- 74
2020-01-31 06:00:00 13.2 0 Calma 14 Sur 0 -- -- 75
2020-01-31 05:00:00 15.4 10 Sur 14 Sur 0 -- -- 75
2020-01-31 04:00:00 13.6 0 Calma 7 Nordeste 0 -- -- 74
2020-01-31 03:00:00 13.4 4 Nordeste 6 Nordeste 0 -- -- 73
2020-01-31 02:00:00 13.9 0 Calma 8 Sudoeste 0 -- -- 70
2020-01-31 01:00:00 13.8 4 Nordeste 7 Norte 0 -- -- 70
2020-01-31 00:00:00 14.6 0 Calma 12 Oeste 0 -- -- 73
2020-01-30 23:00:00 15.1 8 Oeste 12 Oeste 0 -- -- 68
2020-01-30 22:00:00 15.1 6 Oeste 18 Sudoeste 0 -- -- 71
2020-01-30 21:00:00 14.9 5 Oeste 14 Sudoeste 0 -- -- 71
2020-01-30 20:00:00 15.7 3 Oeste 19 Noroeste 0 -- -- 73
2020-01-30 19:00:00 17.1 13 Oeste 27 Oeste 0 -- -- 64
2020-01-30 18:00:00 17.9 20 Oeste 25 Oeste 0 -- -- 67
2020-01-30 17:00:00 18 7 Sudoeste 11 Sudoeste 0 -- -- 61
2020-01-30 16:00:00 18.6 6 Sudoeste 11 Oeste 0 -- -- 63
2020-01-30 15:00:00 17.4 6 Oeste 8 Oeste 0 -- -- 68
2020-01-30 14:00:00 16.7 6 Oeste 13 Oeste 0 -- -- 64
2020-01-30 13:00:00 15.9 10 Oeste 18 Sudoeste 0 -- -- 68
2020-01-30 12:00:00 15.8 13 Sudoeste 15 Sudoeste 0 -- -- 65
2020-01-30 11:00:00 15.6 11 Oeste 14 Sudoeste 0 -- -- 62
2020-01-30 10:00:00 16.9 10 Sur 13 Sur 0 -- -- 47
2020-01-30 09:00:00 13.3 5 Nordeste 9 Oeste 0 -- -- 67
2020-01-30 08:00:00 12.1 4 Norte 14 Oeste 0 -- -- 64
2020-01-30 07:00:00 11.5 0 Calma 12 Oeste 0 -- -- 77
2020-01-30 06:00:00 12.8 6 Noroeste 12 Oeste 0 -- -- 75
2020-01-30 05:00:00 12.7 9 Noroeste 12 Oeste 0 -- -- 79
2020-01-30 04:00:00 12.5 4 Oeste 13 Noroeste 0 -- -- 81
2020-01-30 03:00:00 13.3 11 Noroeste 14 Noroeste 0 -- -- 81
2020-01-30 02:00:00 12.8 4 Oeste 6 Oeste 0 -- -- 85
2020-01-30 01:00:00 14.3 3 Oeste 17 Oeste 0 -- -- 80
2020-01-30 00:00:00 14 12 Noroeste 16 Oeste 0 -- -- 84
2020-01-29 23:00:00 13.1 5 Sudoeste 9 Oeste 0 -- -- 87
2020-01-29 22:00:00 13.9 5 Oeste 14 Oeste 0 -- -- 87
2020-01-29 21:00:00 15.1 8 Oeste 17 Sudoeste 0 -- -- 85
2020-01-29 20:00:00 15.3 2 Sudoeste 13 Oeste 0 -- -- 80
2020-01-29 19:00:00 16 10 Oeste 17 Oeste 0 -- -- 76
2020-01-29 18:00:00 17.3 13 Oeste 19 Sudoeste 0 -- -- 74
2020-01-29 17:00:00 17 16 Oeste 23 Sudoeste 0 -- -- 73
2020-01-29 16:00:00 16.4 14 Oeste 17 Oeste 0 -- -- 75
2020-01-29 15:00:00 16.3 10 Oeste 17 Sudoeste 0 -- -- 80
2020-01-29 14:00:00 15.7 14 Sudoeste 18 Oeste 0 -- -- 82
2020-01-29 13:00:00 15.5 15 Oeste 16 Oeste 0 -- -- 76
2020-01-29 12:00:00 15.8 10 Sudoeste 12 Sudoeste 0 -- -- 80
2020-01-29 11:00:00 15.5 9 Oeste 10 Oeste 0 -- -- 77
2020-01-29 10:00:00 15.1 7 Oeste 9 Oeste 0 -- -- 70
2020-01-29 09:00:00 14 3 Oeste 9 Oeste 0 -- -- 71
2020-01-29 08:00:00 11.6 3 Noroeste 9 Oeste 0 -- -- 81
2020-01-29 07:00:00 11.8 2 Oeste 3 Oeste 0 -- -- 83
2020-01-29 06:00:00 11.3 0 Calma 8 Oeste 0 -- -- 82
2020-01-29 05:00:00 12.3 3 Oeste 7 Oeste 0 -- -- 80
2020-01-29 04:00:00 12.5 0 Calma 5 Nordeste 0 -- -- 80
2020-01-29 03:00:00 12.9 0 Calma 6 Nordeste 0 -- -- 78
2020-01-29 02:00:00 12.9 2 Noroeste 6 Noroeste 0 -- -- 77
2020-01-29 01:00:00 13.8 0 Calma 9 Noroeste 0 -- -- 76
2020-01-29 00:00:00 13.6 5 Oeste 9 Norte 0 -- -- 73
2020-01-28 23:00:00 15.6 0 Calma 23 Noroeste 0 -- -- 65
2020-01-28 22:00:00 16 13 Noroeste 32 Noroeste 0 -- -- 64
2020-01-28 21:00:00 16.2 16 Noroeste 29 Noroeste 0 -- -- 65
2020-01-28 20:00:00 16.6 10 Noroeste 33 Noroeste 0 -- -- 63
2020-01-28 19:00:00 16.9 12 Noroeste 26 Noroeste 0 -- -- 63
2020-01-28 18:00:00 17.3 6 Sudoeste 12 Sudoeste 0 -- -- 69
2020-01-28 17:00:00 16.8 10 Sudoeste 11 Sudoeste 0 -- -- 72
2020-01-28 16:00:00 16.8 8 Sudoeste 15 Oeste 0 -- -- 65
2020-01-28 15:00:00 15.9 14 Oeste 19 Oeste 0 -- -- 68
2020-01-28 14:00:00 15.4 14 Oeste 18 Oeste 0 -- -- 74
2020-01-28 13:00:00 15.4 12 Oeste 14 Sudoeste 0 -- -- 77
2020-01-28 12:00:00 15.4 12 Oeste 13 Oeste 0 -- -- 72
2020-01-28 11:00:00 15.2 10 Oeste 12 Oeste 0 -- -- 74
2020-01-28 10:00:00 14.5 9 Oeste 12 Sudoeste 0 -- -- 74
2020-01-28 09:00:00 13.4 10 Oeste 14 Oeste 0 -- -- 76
2020-01-28 08:00:00 12.1 5 Oeste 10 Sudoeste 0 -- -- 78
2020-01-28 07:00:00 12.6 3 Oeste 8 Norte 0 -- -- 74
2020-01-28 06:00:00 12.4 8 Noroeste 12 Noroeste 0 -- -- 74
2020-01-28 05:00:00 12.4 6 Noroeste 15 Oeste 0 -- -- 74
2020-01-28 04:00:00 13.5 11 Oeste 21 Oeste 0 -- -- 72
2020-01-28 03:00:00 13 6 Oeste 26 Noroeste 0 -- -- 71
2020-01-28 02:00:00 14 12 Noroeste 36 Norte 0 -- -- 65
2020-01-28 01:00:00 13.8 12 Norte 27 Norte 0 -- -- 66
2020-01-28 00:00:00 12.8 4 Noroeste 12 Norte 0 -- -- 70
2020-01-27 23:00:00 12.2 5 Oeste 10 Sudoeste 0 -- -- 72
2020-01-27 22:00:00 13.4 7 Norte 15 Noroeste 0 -- -- 64
2020-01-27 21:00:00 14.5 9 Norte 20 Norte 0 -- -- 63
2020-01-27 20:00:00 13.3 4 Nordeste 10 Norte 0 -- -- 53
2020-01-27 19:00:00 14 6 Noroeste 11 Noroeste 0 -- -- 59
2020-01-27 18:00:00 15.9 9 Oeste 17 Oeste 0 -- -- 65
2020-01-27 17:00:00 15.3 15 Oeste 18 Oeste 0 -- -- 72
2020-01-27 16:00:00 15.3 14 Oeste 16 Oeste 0 -- -- 68
2020-01-27 15:00:00 15.1 14 Oeste 17 Oeste 0 -- -- 72
2020-01-27 14:00:00 15 13 Sudoeste 15 Sudoeste 0 -- -- 67
2020-01-27 13:00:00 15.1 9 Sudoeste 12 Sudoeste 0 -- -- 67
2020-01-27 12:00:00 15.1 11 Sudoeste 14 Sudoeste 0 -- -- 68
2020-01-27 11:00:00 16.2 5 Sur 8 Sudeste 0 -- -- 58
2020-01-27 10:00:00 14.7 3 Oeste 10 Noroeste 0 -- -- 60
2020-01-27 09:00:00 12.2 7 Noroeste 10 Noroeste 0 -- -- 57
2020-01-27 08:00:00 10.6 4 Noroeste 10 Noroeste 0 -- -- 62
2020-01-27 07:00:00 11.1 8 Noroeste 12 Noroeste 0 -- -- 61
2020-01-27 06:00:00 10.4 3 Noroeste 9 Norte 0 -- -- 69
2020-01-27 05:00:00 10.5 5 Oeste 12 Oeste 0 -- -- 71
2020-01-27 04:00:00 11.1 4 Oeste 14 Noroeste 0 -- -- 68
2020-01-27 03:00:00 11.6 7 Noroeste 22 Noroeste 0 -- -- 62
2020-01-27 02:00:00 12.1 10 Oeste 19 Oeste 0 -- -- 59
2020-01-27 01:00:00 13.6 9 Noroeste 24 Norte 0 -- -- 52
2020-01-27 00:00:00 13.8 12 Norte 28 Norte 0 -- -- 52
2020-01-26 23:00:00 14.3 15 Norte 27 Noroeste 0 -- -- 49
2020-01-26 22:00:00 13.6 9 Noroeste 17 Norte 0 -- -- 53
2020-01-26 21:00:00 13.4 10 Noroeste 23 Noroeste 0 -- -- 55
2020-01-26 20:00:00 14.1 9 Norte 19 Norte 0 -- -- 51
2020-01-26 19:00:00 14 8 Noroeste 13 Noroeste 0 -- -- 58
2020-01-26 18:00:00 18 6 Sur 12 Sudoeste 0 -- -- 59
2020-01-26 17:00:00 16.9 12 Sudoeste 19 Sudoeste 0 -- -- 69
2020-01-26 16:00:00 16.7 9 Sudoeste 14 Sudoeste 0 -- -- 70
2020-01-26 15:00:00 16.2 10 Sudoeste 14 Oeste 0 -- -- 70
2020-01-26 14:00:00 16.1 6 Sudoeste 8 Sudoeste 0 -- -- 65
2020-01-26 13:00:00 16.1 4 Sudoeste 7 Oeste 0 -- -- 64
2020-01-26 12:00:00 14.7 6 Oeste 12 Sudoeste 0.2 -- -- 72
2020-01-26 11:00:00 16 5 Sur 7 Sur 0 -- -- 67
2020-01-26 10:00:00 16 0 Calma 5 Noroeste 0 -- -- 72
2020-01-26 09:00:00 11.2 0 Calma 12 Norte 0 -- -- 83
2020-01-26 08:00:00 9.8 5 Noroeste 7 Noroeste 0 -- -- 87
2020-01-26 07:00:00 10.3 0 Calma 7 Norte 0 -- -- 85
2020-01-26 06:00:00 10.8 4 Noroeste 10 Oeste 0 -- -- 87
2020-01-26 05:00:00 11.2 8 Noroeste 12 Norte 0 -- -- 87
2020-01-26 04:00:00 11.1 6 Oeste 8 Oeste 0 -- -- 92
2020-01-26 03:00:00 10.8 0 Calma 6 Norte 0 -- -- 93
2020-01-26 02:00:00 10.7 3 Norte 6 Noroeste 0 -- -- 93
2020-01-26 01:00:00 10.4 3 Noroeste 8 Noroeste 0 -- -- 93
2020-01-26 00:00:00 10.6 3 Noroeste 10 Noroeste 0 -- -- 93
2020-01-25 23:00:00 10.7 6 Norte 12 Oeste 0 -- -- 94
2020-01-25 22:00:00 11.3 6 Noroeste 14 Oeste 1 -- -- 94
2020-01-25 21:00:00 11.9 11 Oeste 17 Noroeste 0.6 -- -- 93
2020-01-25 20:00:00 12.1 9 Noroeste 29 Sudoeste 0.2 -- -- 90
2020-01-25 19:00:00 12.7 24 Sudoeste 31 Sudoeste 1.8 -- -- 87
2020-01-25 18:00:00 12.6 15 Oeste 37 Oeste 1.6 -- -- 90
2020-01-25 17:00:00 13.9 13 Sudoeste 18 Oeste 0 -- -- 80
2020-01-25 16:00:00 14.5 2 Sudeste 9 Este 0 -- -- 78
2020-01-25 15:00:00 14.3 6 Oeste 17 Sudoeste 0 -- -- 75
2020-01-25 14:00:00 13.6 5 Sudeste 29 Sudeste 0.4 -- -- 82
2020-01-25 13:00:00 13.1 21 Sur 32 Sur 1.2 -- -- 87
2020-01-25 12:00:00 13.3 21 Nordeste 24 Nordeste 0 -- -- 87
2020-01-25 11:00:00 12.3 16 Nordeste 25 Nordeste 0.6 -- -- 92
2020-01-25 10:00:00 12 15 Nordeste 21 Nordeste 1.2 -- -- 93
2020-01-25 09:00:00 12.1 12 Nordeste 15 Nordeste 1.2 -- -- 91
2020-01-25 08:00:00 12.4 9 Noroeste 17 Noroeste 0.2 -- -- 86
2020-01-25 07:00:00 12.2 13 Noroeste 40 Oeste 0.2 -- -- 89
2020-01-25 06:00:00 13.2 18 Sudoeste 31 Sudeste 6.2 -- -- 88
2020-01-25 05:00:00 15.1 24 Sudeste 43 Este -- -- -- 91
2020-01-25 04:00:00 14.8 35 Este 44 Este 0 -- -- 89
2020-01-25 03:00:00 14.6 35 Este 44 Este 0 -- -- 89
2020-01-25 02:00:00 14.5 31 Este 35 Este 0 -- -- 89
2020-01-25 01:00:00 12.4 5 Noroeste 17 Noroeste 4.6 -- -- 95
2020-01-25 00:00:00 11.9 14 Noroeste 34 Oeste 9 -- -- 95
2020-01-24 23:00:00 12.1 32 Sur 67 Sudoeste 6.2 -- -- 89
2020-01-24 22:00:00 15.1 24 Este 31 Este 0 -- -- 90
2020-01-24 21:00:00 15 18 Este 29 Este 0 -- -- 90
2020-01-24 20:00:00 14.9 25 Este 49 Este 1.6 -- -- 88
2020-01-24 19:00:00 14.7 31 Este 37 Este 1 -- -- 87
2020-01-24 18:00:00 14.7 27 Este 33 Este 0 -- -- 87
2020-01-24 17:00:00 14.9 29 Este 33 Este 0 -- -- 85
2020-01-24 16:00:00 15 27 Este 32 Este 0 -- -- 84
2020-01-24 15:00:00 15.1 25 Este 30 Este 0 -- -- 84
2020-01-24 14:00:00 14.9 24 Nordeste 32 Nordeste 0 -- -- 81
2020-01-24 13:00:00 15 24 Nordeste 33 Este 0 -- -- 76
2020-01-24 12:00:00 14.1 20 Nordeste 26 Nordeste 0 -- -- 75
2020-01-24 11:00:00 13.7 18 Nordeste 24 Nordeste 0 -- -- 75
2020-01-24 10:00:00 12.9 15 Nordeste 22 Nordeste 0 -- -- 78
2020-01-24 09:00:00 11.8 15 Nordeste 23 Nordeste 0 -- -- 83
2020-01-24 08:00:00 11.8 15 Nordeste 23 Norte 0 -- -- 83
2020-01-24 07:00:00 11.6 15 Nordeste 24 Nordeste 0.2 -- -- 87
2020-01-24 06:00:00 11.6 17 Nordeste 24 Nordeste 0 -- -- 86
2020-01-24 05:00:00 11.3 16 Nordeste 22 Nordeste 0 -- -- 88
2020-01-24 04:00:00 11 9 Nordeste 15 Nordeste 0.4 -- -- 91
2020-01-24 03:00:00 11.4 6 Nordeste 14 Norte 0.2 -- -- 92
2020-01-24 02:00:00 11.1 8 Norte 20 Norte 0.2 -- -- 94
2020-01-24 01:00:00 11.2 12 Nordeste 19 Norte 4.4 -- -- 94
2020-01-24 00:00:00 11.2 6 Noroeste 17 Noroeste 3.8 -- -- 94
2020-01-23 23:00:00 11.3 14 Oeste 57 Sudoeste 15.4 -- -- 94
2020-01-23 22:00:00 14.9 32 Este 43 Este 0 -- -- 84
2020-01-23 21:00:00 15 27 Este 33 Este 0 -- -- 86
2020-01-23 20:00:00 14.8 29 Este 36 Este 0 -- -- 86
2020-01-23 19:00:00 14.8 30 Este 37 Este 0 -- -- 85
2020-01-23 18:00:00 14.7 30 Este 42 Este 0 -- -- 86
2020-01-23 17:00:00 14.8 32 Este 40 Este 0 -- -- 85
2020-01-23 16:00:00 14.7 33 Este 40 Este 0 -- -- 87
2020-01-23 15:00:00 15 33 Este 39 Este 0 -- -- 86
2020-01-23 14:00:00 15.1 30 Este 38 Este 0 -- -- 85
2020-01-23 13:00:00 14.2 12 Este 36 Este 0 -- -- 86
2020-01-23 12:00:00 14.8 31 Este 86 Sudeste 1.2 -- -- 84
2020-01-23 11:00:00 -- -- -- -- -- -- -- -- --
2020-01-23 10:00:00 -- -- -- -- -- -- -- -- --
2020-01-23 09:00:00 -- -- -- -- -- -- -- -- --
2020-01-23 08:00:00 14.6 32 Este 40 Este 0 -- -- 84
2020-01-23 07:00:00 14.7 28 Este 33 Este 0 -- -- 83
2020-01-23 06:00:00 12.5 6 Nordeste 27 Este 0.4 -- -- 86
2020-01-23 05:00:00 14.1 20 Este 33 Sudeste 0.4 -- -- 82
2020-01-23 04:00:00 14.5 27 Sudeste 35 Este 0 -- -- 79
2020-01-23 03:00:00 14.5 18 Sudeste 28 Este 0 -- -- 79
2020-01-23 02:00:00 14.2 20 Este 24 Este 0 -- -- 72
2020-01-23 01:00:00 12.6 7 Nordeste 18 Este 0 -- -- 83
2020-01-23 00:00:00 11.8 5 Nordeste 9 Nordeste 0.2 -- -- 87
2020-01-22 23:00:00 12.7 8 Este 14 Sudeste 0.8 -- -- 77
2020-01-22 22:00:00 13.4 12 Sudeste 26 Este 0.2 -- -- 77
2020-01-22 21:00:00 13.5 20 Este 26 Este 0.2 -- -- 82
2020-01-22 20:00:00 12.2 15 Nordeste 25 Norte 0 -- -- 83
2020-01-22 19:00:00 11.8 15 Nordeste 26 Nordeste 0 -- -- 83
2020-01-22 18:00:00 12.3 18 Nordeste 25 Nordeste 0 -- -- 82
2020-01-22 17:00:00 12.5 10 Nordeste 22 Norte 0 -- -- 79
2020-01-22 16:00:00 12 12 Nordeste 27 Nordeste 0.2 -- -- 82
2020-01-22 15:00:00 11.9 2 Norte 5 Noroeste 1.4 -- -- 85
2020-01-22 14:00:00 11.4 0 Calma 7 Nordeste 1.4 -- -- 85
2020-01-22 13:00:00 12 2 Norte 28 Nordeste 0.2 -- -- 81
2020-01-22 12:00:00 12.4 18 Nordeste 27 Nordeste 0 -- -- 73
2020-01-22 11:00:00 12.4 19 Nordeste 29 Nordeste 0 -- -- 76
2020-01-22 10:00:00 10.9 20 Nordeste 29 Nordeste 0 -- -- 79
2020-01-22 09:00:00 10.7 21 Nordeste 29 Norte 0 -- -- 80
2020-01-22 08:00:00 10.2 18 Nordeste 27 Nordeste 0 -- -- 84
2020-01-22 07:00:00 10.4 17 Nordeste 23 Nordeste 0 -- -- 83
2020-01-22 06:00:00 10 15 Nordeste 19 Norte 0 -- -- 83
2020-01-22 05:00:00 10 14 Nordeste 24 Nordeste 0 -- -- 89
2020-01-22 04:00:00 10.8 16 Nordeste 28 Nordeste 0.4 -- -- 91
2020-01-22 03:00:00 11.5 27 Este 32 Nordeste 4 -- -- 88
2020-01-22 02:00:00 11.2 21 Este 33 Este 1.4 -- -- 88
2020-01-22 01:00:00 11.1 17 Este 24 Nordeste 0.8 -- -- 89
2020-01-22 00:00:00 10.2 15 Nordeste 22 Norte 0.6 -- -- 91
2020-01-21 23:00:00 10.6 12 Nordeste 19 Nordeste 0.6 -- -- 91
2020-01-21 22:00:00 10.4 14 Nordeste 19 Nordeste 0.2 -- -- 90
2020-01-21 21:00:00 10.7 12 Nordeste 21 Nordeste 0.2 -- -- 90
2020-01-21 20:00:00 10.9 15 Nordeste 24 Nordeste 0 -- -- 88
2020-01-21 19:00:00 11.1 10 Nordeste 19 Este 0 -- -- 86
2020-01-21 18:00:00 11.1 14 Nordeste 17 Este 0.6 -- -- 87
2020-01-21 17:00:00 11 2 Oeste 13 Oeste 7 -- -- 83
2020-01-21 16:00:00 13.5 3 Norte 10 Sudoeste 0 -- -- 62
2020-01-21 15:00:00 14.6 5 Sur 9 Este 0 -- -- 57
2020-01-21 14:00:00 13.7 5 Nordeste 15 Nordeste 0 -- -- 59
2020-01-21 13:00:00 14.3 0 Calma 19 Norte 0 -- -- 56
2020-01-21 12:00:00 12.6 7 Norte 20 Sudoeste 0 -- -- 58
2020-01-21 11:00:00 13.3 15 Oeste 22 Oeste 0 -- -- 64
2020-01-21 10:00:00 11.8 9 Noroeste 17 Noroeste 0 -- -- 61
2020-01-21 09:00:00 10.4 4 Norte 16 Norte 0 -- -- 63
2020-01-21 08:00:00 10 9 Noroeste 15 Oeste 0 -- -- 66
2020-01-21 07:00:00 10 5 Noroeste 10 Oeste 0 -- -- 68
2020-01-21 06:00:00 10.5 7 Noroeste 28 Noroeste 0 -- -- 62
2020-01-21 05:00:00 10.9 14 Norte 28 Norte 0 -- -- 60
2020-01-21 04:00:00 10.8 14 Norte 23 Norte 0 -- -- 62
2020-01-21 03:00:00 10.7 14 Norte 25 Norte 0 -- -- 63
2020-01-21 02:00:00 10.2 13 Norte 26 Norte 0 -- -- 68
2020-01-21 01:00:00 9.8 10 Norte 23 Norte 0 -- -- 79
2020-01-21 00:00:00 10.9 7 Nordeste 29 Nordeste 0.4 -- -- 86
2020-01-20 23:00:00 10.2 15 Norte 23 Nordeste 2.4 -- -- 87
2020-01-20 22:00:00 11.3 12 Nordeste 23 Norte 0 -- -- 72
2020-01-20 21:00:00 11.4 14 Norte 24 Norte 0 -- -- 61
2020-01-20 20:00:00 11.3 17 Norte 31 Norte 0 -- -- 60
2020-01-20 19:00:00 10.8 15 Norte 24 Norte 0 -- -- 65
2020-01-20 18:00:00 9.7 12 Norte 20 Norte 0.2 -- -- 70
2020-01-20 17:00:00 9.6 12 Norte 26 Norte 0.2 -- -- 72
2020-01-20 16:00:00 9.4 13 Norte 21 Norte 0.6 -- -- 73
2020-01-20 15:00:00 9 10 Noroeste 26 Norte 1.2 -- -- 81
2020-01-20 14:00:00 8.2 15 Norte 27 Norte 1.4 -- -- 75
2020-01-20 13:00:00 8.5 18 Norte 32 Norte 0.4 -- -- 70
2020-01-20 12:00:00 9.8 19 Norte 33 Norte 0 -- -- 57
2020-01-20 11:00:00 10.2 22 Norte 39 Norte 0 -- -- 52
2020-01-20 10:00:00 9.9 20 Norte 38 Norte 0 -- -- 51
2020-01-20 09:00:00 9.5 26 Norte 45 Norte 0 -- -- 52
2020-01-20 08:00:00 9.7 26 Norte 49 Norte 0 -- -- 54
2020-01-20 07:00:00 10.1 26 Norte 48 Noroeste 0 -- -- 52
2020-01-20 06:00:00 10.3 26 Norte 49 Norte 0 -- -- 53
2020-01-20 05:00:00 10.8 25 Norte 43 Norte 0 -- -- 51
2020-01-20 04:00:00 10.7 26 Norte 45 Norte 0 -- -- 52
2020-01-20 03:00:00 10.9 24 Norte 43 Norte 0 -- -- 53
2020-01-20 02:00:00 11.2 21 Norte 35 Norte 0 -- -- 55
2020-01-20 01:00:00 10.9 14 Norte 36 Norte 0.2 -- -- 62
2020-01-20 00:00:00 11.7 27 Norte 47 Norte 0 -- -- 54
2020-01-19 23:00:00 11.7 30 Norte 58 Norte 0 -- -- 56
2020-01-19 22:00:00 11.9 35 Norte 60 Norte 0 -- -- 57
2020-01-19 21:00:00 12.4 31 Norte 55 Norte 0 -- -- 54
2020-01-19 20:00:00 12.8 21 Norte 42 Norte 0 -- -- 52
2020-01-19 19:00:00 12.9 8 Oeste 40 Norte 0 -- -- 58
2020-01-19 18:00:00 12.8 14 Noroeste 44 Norte 0 -- -- 54
2020-01-19 17:00:00 15.4 19 Noroeste 40 Noroeste 0 -- -- 45
2020-01-19 16:00:00 14.7 16 Noroeste 35 Norte 0 -- -- 47
2020-01-19 15:00:00 16.1 15 Noroeste 37 Noroeste 0 -- -- 46
2020-01-19 14:00:00 15.9 21 Norte 38 Norte 0 -- -- 47
2020-01-19 13:00:00 15 18 Norte 32 Norte 0 -- -- 51
2020-01-19 12:00:00 14.9 10 Oeste 37 Noroeste 0 -- -- 56
2020-01-19 11:00:00 14.5 14 Noroeste 32 Oeste 0 -- -- 55
2020-01-19 10:00:00 14.8 21 Oeste 35 Noroeste 0 -- -- 57
2020-01-19 09:00:00 14.1 19 Noroeste 30 Noroeste 0 -- -- 51
2020-01-19 08:00:00 14 21 Noroeste 33 Noroeste 0 -- -- 51
2020-01-19 07:00:00 14.1 10 Noroeste 22 Norte 0 -- -- 53
2020-01-19 06:00:00 14.2 7 Nordeste 22 Oeste 0 -- -- 57
2020-01-19 05:00:00 14.6 11 Norte 24 Norte 0 -- -- 52
2020-01-19 04:00:00 14.4 6 Norte 21 Norte 0 -- -- 70
2020-01-19 03:00:00 14.7 8 Norte 25 Oeste 0 -- -- 83
2020-01-19 02:00:00 16.2 24 Oeste 42 Sudoeste 0 -- -- 92
2020-01-19 01:00:00 16.2 18 Oeste 50 Sudoeste 0 -- -- 93
2020-01-19 00:00:00 16.2 44 Sudoeste 51 Sudoeste 0 -- -- 93
2020-01-18 23:00:00 16 20 Sudoeste 35 Sudoeste 0 -- -- 93
2020-01-18 22:00:00 15.8 23 Sudoeste 28 Sudoeste 0 -- -- 92
2020-01-18 21:00:00 15.8 19 Oeste 30 Oeste 0 -- -- 91
2020-01-18 20:00:00 15.9 28 Oeste 33 Sudoeste 0 -- -- 90
2020-01-18 19:00:00 16 2 Sudoeste 7 Oeste 0 -- -- 84
2020-01-18 18:00:00 16.1 4 Oeste 12 Oeste 0 -- -- 85
2020-01-18 17:00:00 16.4 10 Oeste 16 Oeste 0 -- -- 82
2020-01-18 16:00:00 16 6 Oeste 11 Oeste 0 -- -- 79
2020-01-18 15:00:00 16.9 4 Sur 9 Sudoeste 0 -- -- 75
2020-01-18 14:00:00 16 7 Sudoeste 11 Sudoeste 0 -- -- 80
2020-01-18 13:00:00 15.8 5 Sur 8 Sudoeste 0 -- -- 76
2020-01-18 12:00:00 15.9 5 Sur 5 Sur 0 -- -- 76
2020-01-18 11:00:00 15.2 0 Calma 5 Este 0 -- -- 78
2020-01-18 10:00:00 14.6 0 Calma 5 Nordeste 0 -- -- 80
2020-01-18 09:00:00 13.7 4 Nordeste 7 Nordeste 0 -- -- 82
2020-01-18 08:00:00 13.6 7 Nordeste 9 Nordeste 0 -- -- 76
2020-01-18 07:00:00 13.5 5 Norte 8 Nordeste 0 -- -- 74
2020-01-18 06:00:00 13.2 2 Nordeste 6 Nordeste 0 -- -- 72
2020-01-18 05:00:00 13.4 3 Norte 11 Nordeste 0 -- -- 71
2020-01-18 04:00:00 13.4 0 Calma 6 Nordeste 0 -- -- 75
2020-01-18 03:00:00 13.2 6 Nordeste 10 Nordeste 0 -- -- 68
2020-01-18 02:00:00 12.8 2 Norte 9 Noroeste 0 -- -- 68
2020-01-18 01:00:00 13.1 6 Oeste 14 Noroeste 0 -- -- 64
2020-01-18 00:00:00 14.5 9 Noroeste 14 Noroeste 0 -- -- 55